Time;durP1;ratioP1;P1;durP2;ratioP2;P2;SDS_P1;SDS_P2;PMS_P1;PMS_P2;Temp;Humidity;BMP_temperature;BMP_pressure;BME280_temperature;BME280_humidity;BME280_pressure;Samples;Min_cycle;Max_cycle;Signal;HPM_P1;HPM_P2
2022/09/21 00:00:33;;;;;;;7.45;1.50;;;;;;;14.76;62.01;100508.16;5072482;28;20107;-71
2022/09/21 00:02:59;;;;;;;4.78;1.70;;;;;;;15.09;62.92;100548.69;5072328;28;20086;-67
2022/09/21 00:05:24;;;;;;;5.95;1.70;;;;;;;15.06;62.30;100542.56;5072431;28;20021;-70
2022/09/21 00:07:51;;;;;;;6.57;1.60;;;;;;;15.14;64.14;100547.06;5072534;28;20029;-70
2022/09/21 00:10:18;;;;;;;8.45;1.60;;;;;;;15.08;62.58;100533.03;5072131;28;20036;-67
2022/09/21 00:12:46;;;;;;;5.07;1.58;;;;;;;15.14;62.71;100543.56;5006443;28;20060;-73
2022/09/21 00:15:11;;;;;;;6.68;1.25;;;;;;;15.19;62.29;100537.63;5072088;28;20445;-66
2022/09/21 00:17:37;;;;;;;3.80;1.40;;;;;;;15.05;61.89;100539.06;5072188;28;20032;-68
2022/09/21 00:20:06;;;;;;;3.33;1.20;;;;;;;15.04;61.90;100535.59;5071909;28;20020;-70
2022/09/21 00:22:32;;;;;;;6.05;1.15;;;;;;;15.08;61.86;100548.63;5072649;28;20027;-66
2022/09/21 00:24:57;;;;;;;5.03;1.60;;;;;;;15.12;60.89;100540.94;5071730;28;20027;-70
2022/09/21 00:27:28;;;;;;;5.03;1.20;;;;;;;15.03;61.22;100544.22;5072169;28;20029;-71
2022/09/21 00:30:05;;;;;;;5.45;1.17;;;;;;;14.90;61.52;100536.16;5072090;28;20063;-68
2022/09/21 00:32:36;;;;;;;4.22;1.20;;;;;;;14.67;61.45;100536.56;5072015;28;20127;-69
2022/09/21 00:35:03;;;;;;;1.98;1.05;;;;;;;14.52;62.08;100539.69;5072035;28;20071;-66
2022/09/21 00:37:30;;;;;;;2.78;1.20;;;;;;;14.48;62.31;100530.94;5071768;28;20032;-68
2022/09/21 00:39:55;;;;;;;6.40;1.58;;;;;;;14.35;62.10;100497.75;5071862;28;20387;-69
2022/09/21 00:42:26;;;;;;;4.57;1.40;;;;;;;14.56;62.37;100544.97;5071874;28;20032;-66
2022/09/21 00:44:52;;;;;;;3.58;1.17;;;;;;;14.67;63.22;100533.97;5071783;28;20032;-69
2022/09/21 00:47:38;;;;;;;2.20;1.20;;;;;;;14.76;64.06;100520.28;5071383;28;20048;-67
2022/09/21 00:50:20;;;;;;;5.18;1.25;;;;;;;14.81;62.41;100511.72;5071145;28;20554;-66
2022/09/21 00:52:53;;;;;;;4.35;1.25;;;;;;;14.77;63.63;100509.06;5071766;28;20086;-69
2022/09/21 00:55:21;;;;;;;3.78;1.23;;;;;;;14.76;64.54;100508.16;5071522;28;20043;-65
2022/09/21 00:57:50;;;;;;;5.15;1.30;;;;;;;14.66;64.05;100506.22;5071341;28;20036;-70
2022/09/21 01:00:16;;;;;;;4.88;1.10;;;;;;;14.70;63.49;100506.34;5071679;28;20033;-69
2022/09/21 01:02:42;;;;;;;3.85;1.05;;;;;;;14.65;64.59;100497.53;5071451;28;20453;-70
2022/09/21 01:05:08;;;;;;;12.25;1.40;;;;;;;14.83;63.73;100515.25;5071018;28;20025;-66
2022/09/21 01:07:38;;;;;;;6.47;1.30;;;;;;;14.41;64.37;100440.72;5071327;28;20029;-70
2022/09/21 01:10:11;;;;;;;9.40;1.50;;;;;;;14.71;64.83;100510.66;5070538;28;20028;-67
2022/09/21 01:12:42;;;;;;;7.85;1.35;;;;;;;14.64;66.01;100511.38;5057299;28;20167;-70
2022/09/21 01:15:37;;;;;;;2.78;1.20;;;;;;;14.67;66.21;100511.44;5057214;28;20527;-69
2022/09/21 01:18:14;;;;;;;6.78;1.50;;;;;;;14.63;65.73;100500.91;5070790;28;20111;-72
2022/09/21 01:21:17;;;;;;;5.72;1.35;;;;;;;14.40;63.26;100507.41;5070844;28;20024;-69
2022/09/21 01:23:42;;;;;;;5.65;1.60;;;;;;;14.36;64.04;100505.56;5070916;28;20596;-72
2022/09/21 01:26:21;;;;;;;2.67;1.23;;;;;;;14.47;64.68;100504.94;5071087;28;20033;-67
2022/09/21 01:29:11;;;;;;;4.03;1.40;;;;;;;14.36;65.34;100496.91;5070888;28;20064;-67
2022/09/21 01:31:40;;;;;;;4.70;1.60;;;;;;;14.12;66.21;100487.72;5070239;28;20029;-72
2022/09/21 01:34:16;;;;;;;6.10;1.52;;;;;;;13.95;66.93;100502.03;5070762;28;20038;-70
2022/09/21 01:36:46;;;;;;;4.70;2.03;;;;;;;14.00;67.96;100485.72;5070965;28;20060;-66
2022/09/21 01:39:13;;;;;;;7.32;1.60;;;;;;;14.00;68.24;100503.00;5070734;28;20035;-68
2022/09/21 01:41:44;;;;;;;7.28;1.45;;;;;;;14.01;68.54;100495.25;5070367;28;20460;-66
2022/09/21 01:44:18;;;;;;;4.75;1.42;;;;;;;13.69;69.07;100504.88;5085816;28;20032;-71
2022/09/21 01:46:45;;;;;;;4.25;1.17;;;;;;;12.71;73.71;100509.13;5070528;28;20070;-68
2022/09/21 01:49:16;;;;;;;2.88;1.23;;;;;;;12.61;75.18;100510.56;5070565;28;20541;-66
2022/09/21 01:51:57;;;;;;;3.08;1.40;;;;;;;12.69;76.11;100509.09;5070295;28;20047;-67
2022/09/21 01:54:33;;;;;;;5.93;1.40;;;;;;;12.90;75.54;100510.56;5070185;28;20032;-68
2022/09/21 01:57:04;;;;;;;4.60;1.40;;;;;;;12.94;75.71;100502.88;5069989;28;20059;-67
2022/09/21 01:59:35;;;;;;;5.30;1.40;;;;;;;13.00;76.43;100512.56;5070271;28;20025;-71
2022/09/21 02:02:12;;;;;;;2.65;1.30;;;;;;;13.00;76.28;100509.09;5070319;28;20486;-66
2022/09/21 02:04:38;;;;;;;3.92;1.50;;;;;;;13.11;75.58;100516.31;5070004;28;20491;-73
2022/09/21 02:07:05;;;;;;;3.33;1.20;;;;;;;13.27;73.31;100515.03;5069920;28;20025;-70
2022/09/21 02:09:31;;;;;;;2.65;1.30;;;;;;;13.37;72.78;100518.78;5069920;28;20035;-70
2022/09/21 02:11:57;;;;;;;8.20;1.23;;;;;;;13.45;71.89;100516.38;5060782;28;20457;-71
2022/09/21 02:14:24;;;;;;;3.40;1.45;;;;;;;13.54;70.01;100511.41;5063901;28;20035;-70
2022/09/21 02:17:15;;;;;;;5.75;1.23;;;;;;;13.66;69.85;100521.25;5070253;28;20027;-70
2022/09/21 02:19:45;;;;;;;2.22;1.33;;;;;;;13.75;69.00;100523.19;5049970;28;20033;-72
2022/09/21 02:22:20;;;;;;;2.95;1.23;;;;;;;13.78;69.07;100525.84;5050403;28;20025;-67
2022/09/21 02:24:54;;;;;;;4.32;1.60;;;;;;;13.63;72.18;100487.41;5050363;28;20082;-70
2022/09/21 02:27:41;;;;;;;4.90;1.30;;;;;;;13.94;71.52;100526.22;5050617;28;20029;-69
2022/09/21 02:30:19;;;;;;;3.88;1.48;;;;;;;13.82;69.81;100495.66;5050506;28;20061;-67
2022/09/21 02:32:51;;;;;;;4.20;1.45;;;;;;;13.99;70.23;100520.28;5050522;28;20483;-69
2022/09/21 02:35:35;;;;;;;5.88;1.30;;;;;;;13.98;69.97;100521.16;5050243;28;20037;-70
2022/09/21 02:38:25;;;;;;;4.95;1.40;;;;;;;13.98;69.84;100515.06;5050151;28;20438;-67
2022/09/21 02:40:55;;;;;;;2.90;1.35;;;;;;;13.99;69.28;100507.31;5050447;28;20562;-66
2022/09/21 02:43:26;;;;;;;2.60;1.40;;;;;;;14.00;68.66;100518.59;5049987;28;20479;-72
2022/09/21 02:45:59;;;;;;;2.53;1.40;;;;;;;14.05;69.55;100514.38;5050226;28;20036;-68
2022/09/21 02:48:36;;;;;;;2.90;1.52;;;;;;;14.03;69.42;100519.53;5050558;28;20113;-72
2022/09/21 02:51:08;;;;;;;4.57;1.33;;;;;;;13.82;70.31;100524.19;5050079;28;20471;-66
2022/09/21 02:53:35;;;;;;;6.22;1.67;;;;;;;13.37;71.66;100518.78;5049944;28;20451;-70
2022/09/21 02:56:06;;;;;;;3.95;1.40;;;;;;;13.31;72.75;100471.00;5049893;28;20029;-69
2022/09/21 02:58:36;;;;;;;11.02;1.70;;;;;;;13.22;75.24;100515.72;5049974;28;20021;-67
2022/09/21 03:01:06;;;;;;;5.60;1.70;;;;;;;13.22;75.75;100523.50;5050206;28;20029;-70
2022/09/21 03:03:32;;;;;;;9.70;1.90;;;;;;;13.19;76.59;100519.13;5049764;28;20493;-70
2022/09/21 03:05:57;;;;;;;4.70;1.40;;;;;;;13.18;76.99;100513.91;5049959;28;20120;-67
2022/09/21 03:08:23;;;;;;;3.47;1.25;;;;;;;13.04;77.10;100506.63;5049868;28;20452;-68
2022/09/21 03:10:49;;;;;;;9.82;1.75;;;;;;;12.97;76.75;100483.94;5050083;28;20045;-67
2022/09/21 03:13:15;;;;;;;4.25;1.38;;;;;;;12.97;76.59;100480.50;5049761;28;20075;-69
2022/09/21 03:15:41;;;;;;;3.97;2.05;;;;;;;13.22;76.47;100511.44;5048502;28;20474;-71
2022/09/21 03:18:08;;;;;;;6.07;1.63;;;;;;;13.26;76.94;100522.78;5049760;28;20052;-70
2022/09/21 03:20:35;;;;;;;6.97;1.67;;;;;;;13.28;76.48;100521.06;5049937;28;20403;-69
2022/09/21 03:23:01;;;;;;;7.32;1.63;;;;;;;13.17;76.52;100512.13;5049902;28;20096;-70
2022/09/21 03:25:28;;;;;;;5.68;1.48;;;;;;;13.23;75.53;100522.66;5050063;28;20060;-70
2022/09/21 03:27:53;;;;;;;4.50;1.88;;;;;;;13.25;75.52;100523.59;5049538;28;20040;-69
2022/09/21 03:30:23;;;;;;;5.55;1.67;;;;;;;13.13;76.07;100526.72;5049809;28;20045;-67
2022/09/21 03:32:49;;;;;;;;;;;;;;;12.95;77.53;100524.53;5052149;28;20487;-66
2022/09/21 03:35:15;;;;;;;8.30;1.65;;;;;;;12.97;77.45;100527.16;5053475;28;19923;-71
2022/09/21 03:37:40;;;;;;;6.75;1.90;;;;;;;12.86;77.37;100503.50;5053645;28;20028;-70
2022/09/21 03:40:06;;;;;;;4.07;1.73;;;;;;;13.00;77.18;100522.94;5053208;28;20029;-67
2022/09/21 03:42:32;;;;;;;4.22;1.80;;;;;;;12.87;77.48;100505.28;5034304;28;20090;-69
2022/09/21 03:44:57;;;;;;;3.40;1.70;;;;;;;13.06;76.89;100523.09;5052870;28;20017;-67
2022/09/21 03:47:22;;;;;;;5.18;1.45;;;;;;;13.14;76.31;100519.84;5052660;28;20123;-69
2022/09/21 03:49:48;;;;;;;7.38;2.22;;;;;;;13.22;77.37;100529.59;5053126;28;20033;-66
2022/09/21 03:52:13;;;;;;;7.25;1.90;;;;;;;13.29;76.80;100525.44;5053244;28;20090;-70
2022/09/21 03:54:39;;;;;;;8.25;2.40;;;;;;;13.32;74.87;100522.94;5052921;28;20021;-67
2022/09/21 03:57:04;;;;;;;5.82;1.80;;;;;;;13.38;74.85;100532.59;5053037;28;20449;-69
2022/09/21 03:59:29;;;;;;;3.97;1.60;;;;;;;13.24;74.22;100521.84;5052793;28;20021;-67
2022/09/21 04:01:55;;;;;;;7.82;1.98;;;;;;;13.18;74.40;100521.69;5052740;28;20489;-69
2022/09/21 04:04:21;;;;;;;6.55;2.13;;;;;;;13.12;74.91;100519.78;5053035;28;20078;-66
2022/09/21 04:06:46;;;;;;;7.53;1.90;;;;;;;13.23;74.72;100523.56;5053222;28;20135;-67
2022/09/21 04:09:12;;;;;;;8.35;2.00;;;;;;;13.17;74.58;100526.00;5050871;28;20028;-67
2022/09/21 04:11:38;;;;;;;10.00;2.22;;;;;;;13.18;74.93;100529.44;5050479;28;20036;-67
2022/09/21 04:14:04;;;;;;;9.13;2.00;;;;;;;13.23;75.21;100527.84;5052695;28;20064;-69
2022/09/21 04:16:30;;;;;;;3.97;1.70;;;;;;;13.11;76.36;100520.66;5051638;28;20029;-67
2022/09/21 04:18:55;;;;;;;10.63;1.83;;;;;;;12.98;77.68;100523.72;5052041;28;20051;-66
2022/09/21 04:21:21;;;;;;;7.47;1.73;;;;;;;13.00;77.74;100532.44;5052547;28;20376;-71
2022/09/21 04:23:48;;;;;;;7.18;1.80;;;;;;;13.05;77.32;100516.16;5068080;28;20036;-66
2022/09/21 04:26:27;;;;;;;8.68;2.25;;;;;;;13.22;75.17;100532.19;5051297;28;20029;-71
2022/09/21 04:28:54;;;;;;;15.25;2.20;;;;;;;13.37;76.50;100533.41;5032289;28;20096;-69
2022/09/21 04:31:20;;;;;;;10.35;1.95;;;;;;;13.49;74.55;100543.28;5044553;28;20044;-73
2022/09/21 04:33:53;;;;;;;3.53;1.60;;;;;;;13.32;73.20;100501.28;5052304;28;20025;-70
2022/09/21 04:36:21;;;;;;;8.10;1.90;;;;;;;13.59;72.67;100550.44;5052526;28;20035;-69
2022/09/21 04:38:47;;;;;;;3.55;1.70;;;;;;;13.55;72.31;100546.91;5052225;28;20116;-69
2022/09/21 04:41:14;;;;;;;6.88;1.65;;;;;;;13.51;72.36;100547.66;5052063;28;20025;-70
2022/09/21 04:43:47;;;;;;;6.45;1.83;;;;;;;13.54;73.86;100545.13;5052233;28;20403;-68
2022/09/21 04:46:15;;;;;;;8.00;1.65;;;;;;;13.53;74.87;100551.19;5050354;28;20036;-71
2022/09/21 04:48:42;;;;;;;4.57;1.58;;;;;;;13.47;73.80;100544.94;5052233;28;20036;-66
2022/09/21 04:51:08;;;;;;;5.00;1.90;;;;;;;13.52;75.86;100554.59;5051964;28;20095;-65
2022/09/21 04:53:36;;;;;;;5.70;2.20;;;;;;;13.56;76.17;100552.97;5051705;28;20036;-67
2022/09/21 04:56:04;;;;;;;17.55;3.17;;;;;;;13.56;74.41;100545.19;5052012;28;20052;-66
2022/09/21 04:58:30;;;;;;;3.38;1.70;;;;;;;13.53;76.04;100552.88;5052178;28;20029;-70
2022/09/21 05:00:55;;;;;;;5.15;1.45;;;;;;;13.50;75.02;100550.22;5051996;28;20472;-72
2022/09/21 05:03:22;;;;;;;14.55;3.65;;;;;;;13.25;75.09;100513.22;5050270;28;20486;-70
2022/09/21 05:05:53;;;;;;;12.70;3.70;;;;;;;13.52;76.96;100554.59;5051511;28;20110;-67
2022/09/21 05:11:05;;;;;;;12.98;4.80;;;;;;;13.40;77.88;100555.16;5031779;28;20051;-70
2022/09/21 05:13:30;;;;;;;14.80;4.75;;;;;;;13.18;79.03;100552.78;5031834;28;20036;-70
2022/09/21 05:15:56;;;;;;;15.10;4.80;;;;;;;12.84;79.81;100555.28;5044411;28;20033;-71
2022/09/21 05:18:21;;;;;;;15.30;4.85;;;;;;;12.82;79.92;100559.53;5051816;28;20028;-69
2022/09/21 05:21:10;;;;;;;10.82;4.68;;;;;;;12.93;79.79;100558.16;5051335;28;20029;-69
2022/09/21 05:23:35;;;;;;;8.82;3.92;;;;;;;13.07;78.52;100547.28;5051335;28;20025;-67
2022/09/21 05:26:00;;;;;;;10.07;3.08;;;;;;;13.06;78.56;100549.03;5051233;28;20032;-69
2022/09/21 05:28:26;;;;;;;5.82;1.85;;;;;;;13.21;76.54;100552.88;5051105;28;20049;-65
2022/09/21 05:31:19;;;;;;;3.38;1.67;;;;;;;13.34;75.29;100546.31;5051311;28;20036;-66
2022/09/21 05:34:05;;;;;;;2.95;1.67;;;;;;;13.41;74.89;100540.50;5009008;28;20038;-66
2022/09/21 05:36:54;;;;;;;3.38;1.58;;;;;;;13.47;74.80;100544.94;5009006;28;20057;-66
2022/09/21 05:39:20;;;;;;;6.90;1.70;;;;;;;13.28;74.98;100502.94;5008947;28;20161;-67
2022/09/21 05:41:45;;;;;;;4.78;1.85;;;;;;;13.66;74.73;100552.38;5008783;28;20116;-66
2022/09/21 05:44:13;;;;;;;6.00;1.80;;;;;;;13.64;76.03;100541.06;4992151;28;20081;-68
2022/09/21 05:46:41;;;;;;;5.95;1.90;;;;;;;13.28;76.43;100497.75;5008603;28;20089;-70
2022/09/21 05:49:31;;;;;;;5.45;2.40;;;;;;;13.63;76.00;100541.91;5008771;28;20049;-71
2022/09/21 05:52:05;;;;;;;3.33;2.05;;;;;;;13.72;76.16;100533.47;5008539;28;20153;-67
2022/09/21 05:54:39;;;;;;;3.42;1.92;;;;;;;13.86;76.01;100545.09;5008257;28;20065;-71
2022/09/21 05:57:24;;;;;;;7.47;2.28;;;;;;;13.94;76.84;100542.66;5008553;28;20045;-69
2022/09/21 06:00:17;;;;;;;4.43;2.15;;;;;;;13.99;78.46;100546.25;4969334;28;20046;-66
2022/09/21 06:02:54;;;;;;;8.65;2.25;;;;;;;13.91;78.51;100540.88;4969313;28;20455;-65
2022/09/21 06:05:20;;;;;;;8.05;1.88;;;;;;;14.04;77.85;100542.06;4969312;28;20117;-66
2022/09/21 06:07:45;;;;;;;10.07;2.30;;;;;;;14.04;77.77;100539.47;4969403;28;20030;-68
2022/09/21 06:10:12;;;;;;;5.30;1.90;;;;;;;13.81;76.78;100493.94;4975201;28;20109;-69
2022/09/21 06:12:38;;;;;;;4.32;2.00;;;;;;;14.27;69.41;100528.75;4988551;28;20496;-68
2022/09/21 06:15:06;;;;;;;3.63;1.88;;;;;;;14.36;66.67;100531.53;4988742;28;20053;-66
2022/09/21 06:17:32;;;;;;;6.25;2.47;;;;;;;14.21;68.32;100520.81;4984037;28;20046;-69
2022/09/21 06:19:58;;;;;;;4.05;2.28;;;;;;;14.45;66.80;100541.25;4988759;28;20042;-66
2022/09/21 06:22:23;;;;;;;3.92;2.20;;;;;;;14.61;66.33;100546.78;4988711;28;20040;-66
2022/09/21 06:24:49;;;;;;;2.15;1.80;;;;;;;14.43;67.58;100536.88;4988529;28;20074;-66
2022/09/21 06:27:14;;;;;;;3.65;2.08;;;;;;;14.54;67.66;100550.97;4988740;28;20185;-66
2022/09/21 06:29:39;;;;;;;4.07;1.95;;;;;;;14.49;68.30;100542.19;4988318;28;20149;-67
2022/09/21 06:32:05;;;;;;;5.15;2.20;;;;;;;14.50;67.81;100541.34;4988571;28;20425;-70
2022/09/21 06:34:30;;;;;;;5.03;2.33;;;;;;;14.44;67.56;100549.00;4988519;28;20535;-70
2022/09/21 06:36:56;;;;;;;4.13;2.22;;;;;;;14.14;68.08;100548.31;5023783;28;20498;-72
2022/09/21 06:39:22;;;;;;;3.80;2.60;;;;;;;14.01;67.70;100513.44;5050402;28;20029;-72
2022/09/21 06:41:47;;;;;;;4.22;2.70;;;;;;;14.39;67.59;100556.69;5050204;28;20652;-70
2022/09/21 06:44:13;;;;;;;3.10;2.20;;;;;;;14.44;66.97;100554.22;5050225;28;20025;-72
2022/09/21 06:46:38;;;;;;;13.75;7.82;;;;;;;14.54;67.28;100550.97;5050303;28;20051;-66
2022/09/21 06:49:04;;;;;;;13.02;6.60;;;;;;;14.49;66.53;100547.38;5050365;28;20025;-70
2022/09/21 06:51:29;;;;;;;7.50;4.35;;;;;;;14.65;66.59;100549.50;5050079;28;20087;-71
2022/09/21 06:53:56;;;;;;;4.53;2.63;;;;;;;14.83;65.14;100546.44;5050275;28;20037;-70
2022/09/21 06:56:22;;;;;;;10.55;2.63;;;;;;;14.94;64.64;100551.88;5050069;28;20039;-69
2022/09/21 06:58:47;;;;;;;7.13;2.40;;;;;;;15.03;64.48;100552.03;5050121;28;20029;-67
2022/09/21 07:01:14;;;;;;;6.07;2.58;;;;;;;15.13;64.09;100537.50;5049983;28;20100;-68
2022/09/21 07:03:41;;;;;;;7.20;2.90;;;;;;;15.23;64.27;100546.34;5050127;28;20249;-70
2022/09/21 07:06:10;;;;;;;10.52;3.33;;;;;;;14.82;66.19;100521.28;5049881;28;20453;-70
2022/09/21 07:08:35;;;;;;;9.13;4.10;;;;;;;14.90;65.80;100511.03;5053599;28;20025;-67
2022/09/21 07:11:01;;;;;;;9.32;3.20;;;;;;;15.19;64.70;100544.56;5053850;28;20024;-67
2022/09/21 07:13:27;;;;;;;6.90;2.60;;;;;;;15.20;64.48;100546.28;5053665;28;20410;-69
2022/09/21 07:15:53;;;;;;;6.90;3.00;;;;;;;15.24;64.44;100544.63;5053723;28;20083;-68
2022/09/21 07:18:20;;;;;;;7.25;2.80;;;;;;;15.33;63.55;100540.47;5054037;28;20029;-72
2022/09/21 07:20:47;;;;;;;9.55;3.00;;;;;;;15.47;62.64;100537.25;5054079;28;20032;-67
2022/09/21 07:23:16;;;;;;;15.25;3.47;;;;;;;15.71;62.08;100533.31;5068859;28;20567;-70
2022/09/21 07:25:48;;;;;;;13.77;3.58;;;;;;;15.76;65.24;100527.31;5053516;28;20474;-67
2022/09/21 07:28:14;;;;;;;9.43;3.20;;;;;;;16.00;61.06;100531.25;5053583;28;20057;-70
2022/09/21 07:30:40;;;;;;;13.20;3.20;;;;;;;16.08;60.75;100531.34;5053300;28;20083;-74
2022/09/21 07:33:06;;;;;;;16.27;4.15;;;;;;;16.13;61.81;100534.91;5053715;28;20025;-67
2022/09/21 07:35:31;;;;;;;22.83;4.78;;;;;;;16.11;61.39;100520.97;5053532;28;20021;-71
2022/09/21 07:37:58;;;;;;;25.85;5.65;;;;;;;16.16;61.00;100495.84;5053452;28;20454;-67
2022/09/21 07:40:24;;;;;;;24.17;5.88;;;;;;;16.24;59.53;100530.72;5053098;28;20028;-68
2022/09/21 07:42:50;;;;;;;21.55;4.45;;;;;;;16.29;58.82;100533.41;5053309;28;20052;-68
2022/09/21 07:45:15;;;;;;;21.02;4.93;;;;;;;16.20;59.16;100492.47;5068455;28;20040;-72
2022/09/21 07:47:40;;;;;;;22.20;5.40;;;;;;;16.45;57.36;100526.69;5053260;28;20029;-70
2022/09/21 07:50:07;;;;;;;20.50;4.93;;;;;;;16.56;58.01;100530.31;5053248;28;20113;-66
2022/09/21 07:52:32;;;;;;;32.15;7.38;;;;;;;16.25;56.24;100496.00;5052848;28;20029;-65
2022/09/21 07:54:57;;;;;;;23.90;6.47;;;;;;;16.33;56.02;100517.81;5052873;28;20028;-65
2022/09/21 08:00:08;;;;;;;14.02;4.00;;;;;;;16.57;55.63;100526.81;5053119;28;20067;-67
2022/09/21 08:02:33;;;;;;;15.32;4.03;;;;;;;16.65;54.46;100525.19;5053096;28;20032;-66
2022/09/21 08:04:59;;;;;;;14.55;3.10;;;;;;;16.74;54.63;100528.78;5052850;28;20032;-66
2022/09/21 08:07:26;;;;;;;8.80;3.13;;;;;;;16.81;55.35;100525.41;5052743;28;20100;-66
2022/09/21 08:09:52;;;;;;;8.00;2.30;;;;;;;16.62;54.94;100522.56;5052960;28;20115;-66
2022/09/21 08:12:18;;;;;;;8.63;2.65;;;;;;;16.63;55.42;100507.78;5052840;28;20112;-70
2022/09/21 08:14:44;;;;;;;9.30;2.75;;;;;;;16.95;54.11;100518.63;5052831;28;20036;-66
2022/09/21 08:17:09;;;;;;;14.02;2.30;;;;;;;17.03;52.33;100515.25;5052759;28;20467;-66
2022/09/21 08:19:35;;;;;;;8.75;2.60;;;;;;;17.20;52.37;100513.69;5052175;28;20073;-72
2022/09/21 08:22:01;;;;;;;9.70;2.30;;;;;;;17.52;52.24;100513.16;5050303;28;20035;-72
2022/09/21 08:24:26;;;;;;;7.00;2.35;;;;;;;17.54;50.54;100466.16;5052324;28;20103;-67
2022/09/21 08:26:52;;;;;;;6.53;2.42;;;;;;;18.00;50.01;100508.31;5052897;28;20033;-70
2022/09/21 08:29:18;;;;;;;9.50;2.20;;;;;;;18.18;48.65;100504.09;5052573;28;20048;-72
2022/09/21 08:31:45;;;;;;;5.07;2.15;;;;;;;18.27;48.42;100502.41;5052425;28;20116;-68
2022/09/21 08:34:11;;;;;;;7.95;2.72;;;;;;;18.25;49.71;100491.06;5052245;28;20087;-69
2022/09/21 08:36:36;;;;;;;8.07;2.40;;;;;;;18.38;52.04;100501.59;5052425;28;20574;-70
2022/09/21 08:39:05;;;;;;;6.72;2.13;;;;;;;18.55;49.50;100499.06;5052074;28;20025;-67
2022/09/21 08:41:39;;;;;;;6.68;2.10;;;;;;;18.59;48.08;100499.09;5052258;28;20021;-66
2022/09/21 08:44:32;;;;;;;12.75;2.28;;;;;;;18.67;47.56;100491.28;5051330;28;20036;-67
2022/09/21 08:47:34;;;;;;;8.88;2.35;;;;;;;18.70;47.72;100495.63;5008672;28;20149;-68
2022/09/21 08:50:02;;;;;;;4.22;1.90;;;;;;;18.59;48.39;100479.91;5008561;28;20033;-68
2022/09/21 08:52:27;;;;;;;2.88;1.60;;;;;;;18.65;47.17;100489.53;5006829;28;20034;-70
2022/09/21 08:54:58;;;;;;;7.72;2.00;;;;;;;18.78;48.19;100493.94;5009556;28;20041;-71
2022/09/21 08:57:29;;;;;;;5.50;1.92;;;;;;;18.85;46.84;100480.00;5009370;28;20547;-71
2022/09/21 08:59:54;;;;;;;3.38;1.52;;;;;;;19.00;45.24;100488.78;5009550;28;20072;-66
2022/09/21 09:02:27;;;;;;;3.05;1.60;;;;;;;19.08;44.85;100480.09;5008562;28;20091;-68
2022/09/21 09:05:21;;;;;;;4.35;1.48;;;;;;;19.12;44.77;100477.50;5007785;28;20102;-72
2022/09/21 09:07:53;;;;;;;2.03;1.42;;;;;;;18.97;45.61;100475.72;5006731;28;20612;-69
2022/09/21 09:10:24;;;;;;;2.55;1.45;;;;;;;19.10;44.33;100471.38;5009044;28;20065;-67
2022/09/21 09:13:20;;;;;;;4.78;1.70;;;;;;;19.22;44.15;100469.63;5009128;28;20033;-67
2022/09/21 09:15:59;;;;;;;2.47;1.30;;;;;;;19.31;43.06;100457.44;5005268;28;20091;-71
2022/09/21 09:18:58;;;;;;;3.22;1.50;;;;;;;19.18;42.62;100451.34;5007448;28;20524;-69
2022/09/21 09:21:41;;;;;;;3.03;1.40;;;;;;;19.36;42.45;100445.22;5007559;28;20026;-71
2022/09/21 09:24:18;;;;;;;2.83;1.17;;;;;;;19.61;42.27;100443.47;5030351;28;20087;-65
2022/09/21 09:26:44;;;;;;;2.92;1.60;;;;;;;19.77;41.57;100435.63;5050225;28;20016;-70
2022/09/21 09:29:22;;;;;;;1.98;1.20;;;;;;;19.95;41.90;100440.84;5050185;28;20052;-70
2022/09/21 09:31:53;;;;;;;2.33;1.33;;;;;;;19.70;41.15;100408.53;5049928;28;20036;-65
2022/09/21 09:34:39;;;;;;;6.20;1.40;;;;;;;20.04;40.01;100438.19;5050278;28;20028;-71
2022/09/21 09:37:12;;;;;;;3.47;1.30;;;;;;;20.32;39.87;100432.00;5050089;28;20017;-66
2022/09/21 09:39:38;;;;;;;2.33;1.38;;;;;;;20.33;40.42;100421.50;5050308;28;20086;-65
2022/09/21 09:42:29;;;;;;;4.60;1.85;;;;;;;20.16;40.53;100432.06;5050262;28;20021;-72
2022/09/21 09:45:17;;;;;;;4.85;1.30;;;;;;;20.20;40.24;100433.78;5050082;28;20542;-66
2022/09/21 09:48:03;;;;;;;2.65;1.60;;;;;;;19.87;41.01;100401.53;5049318;28;20037;-71
2022/09/21 09:50:34;;;;;;;1.90;1.05;;;;;;;20.06;40.60;100429.47;5049989;28;20104;-69
2022/09/21 09:53:19;;;;;;;2.42;1.50;;;;;;;19.83;40.80;100397.19;5045660;28;20668;-71
2022/09/21 09:55:51;;;;;;;2.47;1.13;;;;;;;20.10;40.68;100416.34;5048880;28;20025;-70
2022/09/21 09:58:41;;;;;;;2.40;1.25;;;;;;;20.18;40.96;100411.09;5048986;28;20048;-71
2022/09/21 10:01:06;;;;;;;4.22;1.45;;;;;;;20.30;40.27;100420.63;4988046;28;20208;-72
2022/09/21 10:03:33;;;;;;;1.70;1.23;;;;;;;20.62;40.24;100411.75;4999716;28;20132;-68
2022/09/21 10:05:58;;;;;;;3.10;1.10;;;;;;;20.82;40.08;100419.53;5006227;28;20081;-72
2022/09/21 10:08:38;;;;;;;1.77;1.33;;;;;;;20.58;40.05;100418.75;4987210;28;20084;-71
2022/09/21 10:11:04;;;;;;;1.63;1.30;;;;;;;20.27;40.23;100386.59;4988195;28;20053;-67
2022/09/21 10:13:30;;;;;;;1.45;1.20;;;;;;;20.24;39.97;100415.41;5000857;28;20040;-73
2022/09/21 10:16:16;;;;;;;2.58;1.23;;;;;;;20.06;40.06;100379.69;5006431;28;20571;-69
2022/09/21 10:18:49;;;;;;;2.53;1.20;;;;;;;20.14;39.97;100414.59;4992588;28;20057;-69
2022/09/21 10:21:24;;;;;;;1.95;1.42;;;;;;;19.81;40.85;100382.34;4991270;28;20041;-69
2022/09/21 10:24:03;;;;;;;2.15;1.38;;;;;;;20.02;42.21;100408.50;5007336;28;20026;-66
2022/09/21 10:26:55;;;;;;;2.50;1.40;;;;;;;19.96;41.43;100394.56;5007446;28;20034;-67
2022/09/21 10:29:22;;;;;;;2.67;1.42;;;;;;;19.94;41.51;100410.28;4990297;28;20056;-67
2022/09/21 10:32:15;;;;;;;5.53;1.30;;;;;;;19.99;41.09;100399.81;5006197;28;20046;-68
2022/09/21 10:34:59;;;;;;;4.80;1.50;;;;;;;20.07;40.73;100411.09;4983136;28;20068;-66
2022/09/21 10:37:33;;;;;;;2.92;1.42;;;;;;;20.13;40.40;100403.22;4999963;28;20123;-66
2022/09/21 10:40:00;;;;;;;5.18;1.60;;;;;;;19.85;40.95;100402.44;5069187;28;20396;-67
2022/09/21 10:42:41;;;;;;;4.70;1.67;;;;;;;19.73;41.54;100398.06;5066879;28;20033;-67
2022/09/21 10:45:16;;;;;;;3.00;1.40;;;;;;;19.83;41.23;100397.19;5069414;28;20103;-64
2022/09/21 10:47:46;;;;;;;3.55;1.40;;;;;;;19.56;41.41;100370.19;5069476;28;20025;-66
2022/09/21 10:50:30;;;;;;;;;;;;;;;19.48;42.27;100386.78;5069552;28;20029;-66
2022/09/21 10:53:12;;;;;;;1.40;1.30;;;;;;;19.22;42.66;100390.25;5044094;28;19999;-67
2022/09/21 10:55:42;;;;;;;1.88;1.20;;;;;;;19.08;43.02;100387.66;5070004;28;20029;-66
2022/09/21 10:58:13;;;;;;;3.40;1.38;;;;;;;19.18;43.05;100383.28;5069867;28;20059;-65
2022/09/21 11:00:48;;;;;;;3.00;1.60;;;;;;;19.33;42.27;100374.56;5069648;28;20047;-65
2022/09/21 11:03:29;;;;;;;3.25;1.50;;;;;;;19.60;41.83;100384.13;5069732;28;20051;-68
2022/09/21 11:05:56;;;;;;;2.35;1.50;;;;;;;19.29;41.41;100347.53;5068387;28;20021;-68
2022/09/21 11:08:35;;;;;;;4.50;2.63;;;;;;;19.24;42.63;100378.91;5068080;28;20040;-68
2022/09/21 11:11:15;;;;;;;2.70;1.60;;;;;;;19.27;41.77;100370.19;5068133;28;20033;-66
2022/09/21 11:13:51;;;;;;;2.40;1.25;;;;;;;19.44;43.20;100372.81;5063828;28;20032;-66
2022/09/21 11:16:28;;;;;;;2.63;1.67;;;;;;;19.41;45.17;100372.78;5052537;28;20086;-67
2022/09/21 11:19:04;;;;;;;2.35;1.70;;;;;;;19.78;41.12;100369.25;5049160;28;20401;-68
2022/09/21 11:21:44;;;;;;;2.90;1.20;;;;;;;19.98;42.35;100363.97;5054309;28;20132;-67
2022/09/21 11:24:34;;;;;;;1.75;1.40;;;;;;;20.06;43.65;100362.19;5043457;28;20101;-67
2022/09/21 11:27:17;;;;;;;3.30;1.48;;;;;;;19.79;42.32;100332.56;5058478;28;20052;-64
2022/09/21 11:30:12;;;;;;;2.58;1.48;;;;;;;19.97;41.10;100370.94;5050188;28;20045;-68
2022/09/21 11:33:26;;;;;;;9.35;2.65;;;;;;;20.10;44.16;100373.53;4985872;28;20503;-69
2022/09/21 11:36:04;;;;;;;5.93;1.45;;;;;;;20.01;42.71;100377.94;4985995;28;20035;-71
2022/09/21 11:38:35;;;;;;;6.15;1.10;;;;;;;19.71;42.98;100381.47;4987377;28;20062;-71
2022/09/21 11:41:10;;;;;;;4.22;1.48;;;;;;;19.40;45.08;100373.66;4987325;28;20041;-71
2022/09/21 11:43:53;;;;;;;8.90;1.48;;;;;;;19.02;47.75;100374.56;4987645;28;20511;-71
2022/09/21 11:46:42;;;;;;;8.93;1.30;;;;;;;18.82;49.88;100380.59;4986419;28;20484;-70
2022/09/21 11:49:32;;;;;;;10.03;1.50;;;;;;;18.61;51.18;100368.34;4987637;28;20445;-69